createdAt,value
2018-04-19T00:08:28.453Z,39.97
2018-04-19T00:10:55.990Z,49.27
2018-04-19T00:13:23.567Z,43.93
2018-04-19T00:15:51.166Z,51.00
2018-04-19T00:18:18.831Z,41.30
2018-04-19T00:20:46.453Z,45.30
2018-04-19T00:23:14.021Z,45.80
2018-04-19T00:25:41.571Z,49.83
2018-04-19T00:28:09.129Z,47.03
2018-04-19T00:30:36.754Z,48.97
2018-04-19T00:33:04.354Z,47.73
2018-04-19T00:35:31.940Z,57.20
2018-04-19T00:37:59.480Z,49.40
2018-04-19T00:40:27.049Z,49.60
2018-04-19T00:42:54.634Z,53.07
2018-04-19T00:45:22.221Z,59.10
2018-04-19T00:47:49.777Z,56.73
2018-04-19T00:50:17.374Z,57.10
2018-04-19T00:52:56.720Z,53.60
2018-04-19T00:55:24.296Z,52.23
2018-04-19T00:57:52.184Z,59.97
2018-04-19T01:00:19.738Z,52.40
2018-04-19T01:02:47.288Z,53.27
2018-04-19T01:05:14.892Z,55.30
2018-04-19T01:07:42.473Z,55.10
2018-04-19T01:10:10.038Z,60.43
2018-04-19T01:12:37.636Z,71.13
2018-04-19T01:15:05.210Z,56.80
2018-04-19T01:17:32.777Z,65.57
2018-04-19T01:20:00.351Z,66.27
2018-04-19T01:22:27.901Z,62.00
2018-04-19T01:24:55.473Z,66.30
2018-04-19T01:27:23.053Z,63.57
2018-04-19T01:29:50.669Z,65.73
2018-04-19T01:32:18.226Z,63.10
2018-04-19T01:34:45.778Z,59.23
2018-04-19T01:37:13.365Z,63.07
2018-04-19T01:39:40.934Z,60.07
2018-04-19T01:42:08.531Z,71.30
2018-04-19T01:44:36.087Z,63.10
2018-04-19T01:47:03.701Z,68.60
2018-04-19T01:49:31.265Z,63.93
2018-04-19T01:51:58.815Z,70.87
2018-04-19T01:54:26.426Z,68.13
2018-04-19T01:56:54.438Z,58.90
2018-04-19T01:59:22.018Z,67.13
2018-04-19T02:02:06.393Z,64.47
2018-04-19T02:04:34.004Z,66.80
2018-04-19T02:07:01.576Z,65.80
2018-04-19T02:09:29.144Z,62.03
2018-04-19T02:11:56.746Z,60.60
2018-04-19T02:14:24.381Z,61.73
2018-04-19T02:16:51.981Z,66.10
2018-04-19T02:19:19.536Z,61.27
2018-04-19T02:21:47.113Z,66.00
2018-04-19T02:24:14.683Z,67.53
2018-04-19T02:26:42.275Z,67.00
2018-04-19T02:29:09.827Z,65.77
2018-04-19T02:31:37.401Z,65.13
2018-04-19T02:34:04.968Z,62.40
2018-04-19T02:36:32.689Z,67.47
2018-04-19T02:39:00.283Z,65.63
2018-04-19T02:41:27.846Z,66.90
2018-04-19T02:43:55.448Z,64.80
2018-04-19T02:46:23.004Z,70.33
2018-04-19T02:48:50.571Z,73.87
2018-04-19T02:51:18.152Z,69.33
2018-04-19T02:53:45.736Z,70.57
2018-04-19T02:56:13.316Z,72.23
2018-04-19T02:58:40.897Z,71.33
2018-04-19T03:01:08.493Z,69.63
2018-04-19T03:03:36.041Z,71.33
2018-04-19T03:06:03.628Z,75.37
2018-04-19T03:08:31.227Z,73.00
2018-04-19T03:10:58.922Z,76.73
2018-04-19T03:13:26.511Z,73.47
2018-04-19T03:15:54.365Z,79.40
2018-04-19T03:18:21.936Z,71.37
2018-04-19T03:20:49.518Z,74.90
2018-04-19T03:23:17.941Z,75.50
2018-04-19T03:25:45.537Z,72.80
2018-04-19T03:28:13.122Z,81.20
2018-04-19T03:30:40.704Z,75.23
2018-04-19T03:33:08.260Z,81.70
2018-04-19T03:35:35.795Z,75.67
2018-04-19T03:38:03.386Z,76.13
2018-04-19T03:40:30.962Z,78.50
2018-04-19T03:42:58.692Z,69.50
2018-04-19T03:45:26.251Z,79.23
2018-04-19T03:47:53.885Z,74.40
2018-04-19T03:50:21.445Z,79.03
2018-04-19T03:52:49.039Z,75.43
2018-04-19T03:55:16.627Z,84.60
2018-04-19T03:57:44.289Z,72.80
2018-04-19T04:00:11.854Z,73.53
2018-04-19T04:02:39.433Z,76.47
2018-04-19T04:05:06.983Z,81.10
2018-04-19T04:07:34.594Z,74.17
2018-04-19T04:10:02.221Z,74.83
2018-04-19T04:12:29.784Z,87.23
2018-04-19T04:14:57.352Z,77.27
2018-04-19T04:17:36.603Z,76.43
2018-04-19T04:23:27.213Z,78.73
2018-04-19T04:25:54.810Z,76.20
2018-04-19T04:28:22.382Z,83.50
2018-04-19T04:30:49.937Z,79.10
2018-04-19T04:33:17.619Z,81.70
2018-04-19T04:35:45.184Z,80.20
2018-04-19T04:38:12.792Z,79.20
2018-04-19T04:40:40.361Z,71.80
2018-04-19T04:43:07.899Z,72.80
2018-04-19T04:45:35.503Z,70.83
2018-04-19T04:48:03.065Z,75.90
2018-04-19T04:50:30.679Z,68.77
2018-04-19T04:52:58.251Z,75.67
2018-04-19T04:55:25.835Z,84.90
2018-04-19T04:57:53.441Z,81.60
2018-04-19T05:00:21.066Z,78.60
2018-04-19T05:02:49.616Z,74.47
2018-04-19T05:05:17.268Z,82.63
2018-04-19T05:07:44.833Z,80.07
2018-04-19T05:10:12.406Z,87.73
2018-04-19T05:12:40.006Z,86.13
2018-04-19T05:15:07.616Z,80.53
2018-04-19T05:17:35.277Z,78.63
2018-04-19T05:20:02.945Z,76.43
2018-04-19T05:22:30.532Z,87.73
2018-04-19T05:24:58.083Z,83.53
2018-04-19T05:27:25.646Z,78.53
2018-04-19T05:29:53.206Z,75.97
2018-04-19T05:32:20.780Z,81.73
2018-04-19T05:34:48.363Z,71.70
2018-04-19T05:37:15.978Z,66.43
2018-04-19T05:39:43.532Z,79.10
2018-04-19T05:42:11.134Z,69.60
2018-04-19T05:44:38.698Z,63.60
2018-04-19T05:47:06.256Z,72.83
2018-04-19T05:49:33.809Z,73.00
2018-04-19T05:52:01.392Z,64.03
2018-04-19T05:54:28.950Z,70.73
2018-04-19T05:56:56.525Z,66.53
2018-04-19T05:59:24.083Z,65.13
2018-04-19T06:01:51.690Z,58.80
2018-04-19T06:04:19.317Z,53.53
2018-04-19T06:06:46.870Z,59.53
2018-04-19T06:09:14.463Z,52.60
2018-04-19T06:11:42.046Z,47.73
2018-04-19T06:14:09.614Z,55.50
2018-04-19T06:16:37.170Z,50.07
2018-04-19T06:19:04.788Z,50.53
2018-04-19T06:21:32.347Z,48.27
2018-04-19T06:23:59.914Z,44.43
2018-04-19T06:26:27.474Z,49.07
2018-04-19T06:28:55.063Z,50.23
2018-04-19T06:31:22.606Z,42.07
2018-04-19T06:33:50.174Z,48.07
2018-04-19T06:36:17.733Z,47.20
2018-04-19T06:38:45.289Z,48.20
2018-04-19T06:41:12.846Z,46.10
2018-04-19T06:43:40.505Z,46.10
2018-04-19T06:46:08.060Z,37.13
2018-04-19T06:48:35.639Z,45.83
2018-04-19T06:51:03.181Z,43.90
2018-04-19T06:53:30.727Z,45.77
2018-04-19T06:55:58.314Z,43.43
2018-04-19T06:58:25.849Z,48.27
2018-04-19T07:00:53.401Z,41.77
2018-04-19T07:03:20.984Z,44.50
2018-04-19T07:05:48.558Z,50.43
2018-04-19T07:08:16.145Z,49.50
2018-04-19T07:10:43.705Z,46.10
2018-04-19T07:13:11.263Z,42.17
2018-04-19T07:15:38.805Z,43.73
2018-04-19T07:18:06.667Z,51.50
2018-04-19T07:20:34.220Z,43.67
2018-04-19T07:23:01.830Z,47.10
2018-04-19T07:25:29.368Z,47.17
2018-04-19T07:27:56.944Z,46.73
2018-04-19T07:30:24.528Z,47.47
2018-04-19T07:32:52.089Z,45.87
2018-04-19T07:35:19.716Z,44.57
2018-04-19T07:37:47.278Z,39.70
2018-04-19T07:40:14.839Z,41.40
2018-04-19T07:42:42.386Z,42.22
2018-04-19T07:45:09.958Z,44.10
2018-04-19T07:47:37.518Z,42.28
2018-04-19T07:50:05.072Z,41.67
2018-04-19T07:52:32.628Z,42.17
2018-04-19T07:55:00.179Z,41.13
2018-04-19T07:57:27.760Z,40.72
2018-04-19T07:59:55.326Z,41.28
2018-04-19T08:02:22.887Z,42.22
2018-04-19T08:04:50.456Z,42.60
2018-04-19T08:07:18.166Z,41.58
2018-04-19T08:09:45.746Z,39.42
2018-04-19T08:12:13.309Z,40.22
2018-04-19T08:14:40.897Z,41.13
2018-04-19T08:17:08.470Z,42.80
2018-04-19T08:19:36.155Z,46.10
2018-04-19T08:22:03.717Z,42.65
2018-04-19T08:24:31.304Z,48.72
2018-04-19T08:26:58.862Z,46.70
2018-04-19T08:29:26.802Z,46.55
2018-04-19T08:31:54.386Z,45.03
2018-04-19T08:34:21.923Z,44.33
2018-04-19T08:36:49.544Z,42.55
2018-04-19T08:39:17.104Z,42.07
2018-04-19T08:41:44.661Z,41.77
2018-04-19T08:44:12.233Z,39.07
2018-04-19T08:46:39.786Z,43.87
2018-04-19T08:49:07.352Z,42.47
2018-04-19T08:51:34.906Z,43.00
2018-04-19T08:54:02.496Z,42.80
2018-04-19T08:56:30.060Z,47.93
2018-04-19T08:58:57.617Z,40.97
2018-04-19T09:01:25.173Z,45.83
2018-04-19T09:03:52.757Z,46.53
2018-04-19T09:06:20.310Z,53.50
2018-04-19T09:08:47.882Z,38.30
2018-04-19T09:11:15.441Z,47.10
2018-04-19T09:13:43.004Z,48.17
2018-04-19T09:16:10.549Z,49.10
2018-04-19T09:18:38.130Z,46.23
2018-04-19T09:21:05.703Z,41.37
2018-04-19T09:23:33.272Z,44.90
2018-04-19T09:26:00.829Z,45.77
2018-04-19T09:28:28.419Z,40.00
2018-04-19T09:30:55.976Z,39.83
2018-04-19T09:33:23.648Z,43.37
2018-04-19T09:35:51.230Z,43.37
2018-04-19T09:38:18.811Z,39.23
2018-04-19T09:40:46.376Z,43.77
2018-04-19T09:43:13.932Z,46.13
2018-04-19T09:45:41.493Z,39.03
2018-04-19T09:48:09.053Z,39.57
2018-04-19T09:50:36.665Z,41.03
2018-04-19T09:53:04.299Z,45.67
2018-04-19T09:55:31.887Z,39.30
2018-04-19T09:58:10.355Z,37.17
2018-04-19T10:00:43.563Z,38.10
2018-04-19T10:03:16.683Z,43.87
2018-04-19T10:05:48.059Z,38.73
2018-04-19T10:08:15.615Z,41.70
2018-04-19T10:10:43.154Z,33.90
2018-04-19T10:13:10.709Z,34.73
2018-04-19T10:15:38.323Z,36.73
2018-04-19T10:18:05.885Z,33.27
2018-04-19T10:20:33.451Z,34.47
2018-04-19T10:23:01.041Z,36.60
2018-04-19T10:25:28.625Z,34.40
2018-04-19T10:27:56.205Z,35.83
2018-04-19T10:30:23.776Z,33.13
2018-04-19T10:32:51.318Z,28.60
2018-04-19T10:35:18.874Z,29.10
2018-04-19T10:37:46.433Z,30.87
2018-04-19T10:40:13.981Z,31.53
2018-04-19T10:42:41.553Z,31.23
2018-04-19T10:45:09.144Z,29.83
2018-04-19T10:47:36.720Z,24.17
2018-04-19T10:50:04.331Z,23.67
2018-04-19T10:52:31.881Z,26.57
2018-04-19T10:54:59.448Z,26.67
2018-04-19T10:57:27.005Z,23.27
2018-04-19T10:59:54.546Z,29.07
2018-04-19T11:02:22.127Z,26.27
2018-04-19T11:04:49.676Z,23.07
2018-04-19T11:07:17.245Z,23.10
2018-04-19T11:09:44.808Z,25.37
2018-04-19T11:12:12.361Z,25.33
2018-04-19T11:14:39.924Z,24.53
2018-04-19T11:17:07.484Z,25.57
2018-04-19T11:19:35.080Z,19.97
2018-04-19T11:22:02.642Z,22.53
2018-04-19T11:24:30.197Z,17.97
2018-04-19T11:26:57.752Z,16.93
2018-04-19T11:29:25.366Z,17.17
2018-04-19T11:31:52.918Z,19.80
2018-04-19T11:34:20.513Z,23.37
2018-04-19T11:36:48.057Z,15.53
2018-04-19T11:39:15.615Z,18.23
2018-04-19T11:41:43.178Z,14.97
2018-04-19T11:44:10.776Z,14.90
2018-04-19T11:46:38.343Z,11.17
2018-04-19T11:49:05.915Z,11.33
2018-04-19T11:51:33.479Z,9.73
2018-04-19T11:54:01.032Z,11.47
2018-04-19T11:56:28.603Z,12.77
2018-04-19T11:58:56.164Z,12.10
2018-04-19T12:01:23.721Z,9.00
2018-04-19T12:03:51.277Z,7.87
2018-04-19T12:06:18.805Z,7.67
2018-04-19T12:08:46.361Z,9.37
2018-04-19T12:11:13.921Z,6.50
2018-04-19T12:13:41.480Z,7.87
2018-04-19T12:16:09.033Z,7.40
2018-04-19T12:18:36.578Z,7.03
2018-04-19T12:21:04.143Z,4.15
2018-04-19T12:23:31.686Z,6.72
2018-04-19T12:25:59.252Z,3.63
2018-04-19T12:28:26.841Z,4.43
2018-04-19T12:30:54.406Z,5.20
2018-04-19T12:33:21.985Z,12.65
2018-04-19T12:35:49.579Z,12.33
2018-04-19T12:38:17.145Z,8.17
2018-04-19T12:40:44.723Z,8.50
2018-04-19T12:43:12.284Z,9.90
2018-04-19T12:45:39.821Z,6.10
2018-04-19T12:48:07.421Z,4.73
2018-04-19T12:50:34.959Z,7.17
2018-04-19T12:53:02.521Z,4.17
2018-04-19T12:55:30.061Z,5.60
2018-04-19T12:57:57.624Z,4.70
2018-04-19T13:00:25.188Z,5.53
2018-04-19T13:02:52.771Z,5.77
2018-04-19T13:05:20.342Z,6.23
2018-04-19T13:07:47.887Z,5.97
2018-04-19T13:10:15.447Z,6.23
2018-04-19T13:12:43.012Z,7.00
2018-04-19T13:15:10.569Z,5.47
2018-04-19T13:17:38.275Z,5.12
2018-04-19T13:20:05.894Z,5.67
2018-04-19T13:22:33.452Z,12.50
2018-04-19T13:25:01.048Z,10.23
2018-04-19T13:27:28.594Z,7.20
2018-04-19T13:29:56.161Z,8.57
2018-04-19T13:32:23.810Z,11.40
2018-04-19T13:34:51.617Z,10.00
2018-04-19T13:37:19.207Z,8.13
2018-04-19T13:39:46.782Z,6.85
2018-04-19T13:42:14.391Z,6.50
2018-04-19T13:44:41.966Z,8.73
2018-04-19T13:47:09.513Z,9.80
2018-04-19T13:49:37.149Z,7.87
2018-04-19T13:52:04.683Z,5.47
2018-04-19T13:54:32.268Z,5.53
2018-04-19T13:56:59.858Z,7.07
2018-04-19T13:59:27.429Z,6.18
2018-04-19T14:01:55.082Z,7.62
2018-04-19T14:04:22.620Z,5.20
2018-04-19T14:06:50.183Z,10.10
2018-04-19T14:09:17.782Z,7.65
2018-04-19T14:11:45.346Z,19.83
2018-04-19T14:14:12.945Z,19.83
2018-04-19T14:16:40.500Z,13.60
2018-04-19T14:19:08.054Z,13.67
2018-04-19T14:21:35.619Z,20.20
2018-04-19T14:24:03.201Z,15.73
2018-04-19T14:26:30.776Z,16.43
2018-04-19T14:28:58.322Z,13.63
2018-04-19T14:31:25.870Z,11.17
2018-04-19T14:33:53.456Z,13.33
2018-04-19T14:36:21.032Z,13.57
2018-04-19T14:38:48.590Z,19.97
2018-04-19T14:41:16.154Z,19.37
2018-04-19T14:43:43.720Z,22.70
2018-04-19T14:46:11.292Z,17.93
2018-04-19T14:48:38.867Z,19.23
2018-04-19T14:51:06.437Z,24.33
2018-04-19T14:53:34.040Z,19.17
2018-04-19T14:56:01.594Z,25.17
2018-04-19T14:58:29.157Z,30.27
2018-04-19T15:00:56.729Z,30.17
2018-04-19T15:03:24.655Z,27.43
2018-04-19T15:05:52.256Z,22.03
2018-04-19T15:08:20.011Z,25.13
2018-04-19T15:10:47.586Z,20.53
2018-04-19T15:13:15.221Z,20.63
2018-04-19T15:15:42.738Z,24.53
2018-04-19T15:18:10.295Z,27.17
2018-04-19T15:20:37.857Z,29.97
2018-04-19T15:23:05.417Z,26.60
2018-04-19T15:25:33.238Z,30.53
2018-04-19T15:28:00.804Z,24.30
2018-04-19T15:30:28.367Z,28.17
2018-04-19T15:32:55.938Z,35.07
2018-04-19T15:35:23.975Z,31.87
2018-04-19T15:37:51.539Z,46.07
2018-04-19T15:40:19.109Z,34.07
2018-04-19T15:42:46.684Z,35.40
2018-04-19T15:45:14.244Z,34.33
2018-04-19T15:47:41.796Z,35.37
2018-04-19T15:50:09.366Z,41.90
2018-04-19T15:52:36.916Z,35.03
2018-04-19T15:55:04.545Z,39.33
2018-04-19T15:57:32.090Z,32.53
2018-04-19T15:59:59.660Z,37.83
2018-04-19T16:02:27.279Z,36.00
2018-04-19T16:04:54.872Z,34.23
2018-04-19T16:07:22.482Z,40.13
2018-04-19T16:09:50.087Z,31.13
2018-04-19T16:12:17.639Z,29.97
2018-04-19T16:14:45.232Z,34.33
2018-04-19T16:17:12.832Z,30.30
2018-04-19T16:19:40.378Z,30.77
2018-04-19T16:22:07.940Z,29.63
2018-04-19T16:24:35.568Z,33.47
2018-04-19T16:27:03.647Z,28.80
2018-04-19T16:29:31.492Z,26.30
2018-04-19T16:31:59.049Z,28.30
2018-04-19T16:34:26.657Z,28.43
2018-04-19T16:36:54.206Z,31.17
2018-04-19T16:39:21.791Z,32.17
2018-04-19T16:41:49.362Z,30.13
2018-04-19T16:44:16.933Z,33.03
2018-04-19T16:46:44.493Z,31.13
2018-04-19T16:49:12.100Z,29.50
2018-04-19T16:51:39.680Z,30.03
2018-04-19T16:54:07.260Z,29.43
2018-04-19T16:56:35.030Z,25.67
2018-04-19T16:59:02.851Z,27.67
2018-04-19T17:01:30.415Z,28.47
2018-04-19T17:03:57.983Z,28.00
2018-04-19T17:06:25.650Z,27.10
2018-04-19T17:08:53.365Z,26.53
2018-04-19T17:11:20.949Z,28.33
2018-04-19T17:13:48.524Z,26.33
2018-04-19T17:16:16.133Z,26.37
2018-04-19T17:18:43.674Z,29.50
2018-04-19T17:21:11.228Z,25.37
2018-04-19T17:23:38.865Z,27.40
2018-04-19T17:26:06.622Z,27.17
2018-04-19T17:28:34.165Z,26.53
2018-04-19T17:31:01.888Z,29.53
2018-04-19T17:33:29.656Z,33.00
2018-04-19T17:35:57.215Z,26.30
2018-04-19T17:38:24.805Z,32.43
2018-04-19T17:40:52.391Z,29.63
2018-04-19T17:43:20.050Z,31.43
2018-04-19T17:45:47.605Z,27.67
2018-04-19T17:48:15.154Z,27.87
2018-04-19T17:50:42.988Z,29.00
2018-04-19T17:53:10.745Z,25.87
2018-04-19T17:55:38.305Z,29.60
2018-04-19T17:58:05.973Z,25.80
2018-04-19T18:00:33.690Z,24.67
2018-04-19T18:03:01.233Z,22.60
2018-04-19T18:05:28.822Z,24.47
2018-04-19T18:07:56.382Z,26.67
2018-04-19T18:10:23.962Z,20.43
2018-04-19T18:12:51.540Z,19.77
2018-04-19T18:15:19.101Z,24.40
2018-04-19T18:17:46.756Z,17.90
2018-04-19T18:20:14.810Z,25.67
2018-04-19T18:22:42.375Z,25.93
2018-04-19T18:25:10.312Z,20.70
2018-04-19T18:27:37.901Z,22.87
2018-04-19T18:30:05.485Z,19.10
2018-04-19T18:32:33.045Z,19.43
2018-04-19T18:35:00.824Z,21.00
2018-04-19T18:37:28.430Z,20.57
2018-04-19T18:39:56.009Z,20.27
2018-04-19T18:42:23.637Z,23.13
2018-04-19T18:44:51.233Z,20.77
2018-04-19T18:47:18.796Z,17.43
2018-04-19T18:49:46.414Z,18.90
2018-04-19T18:52:13.985Z,24.93
2018-04-19T18:54:41.553Z,25.10
2018-04-19T18:57:09.128Z,25.63
2018-04-19T18:59:36.694Z,18.87
2018-04-19T19:02:04.273Z,21.40
2018-04-19T19:04:31.864Z,20.30
2018-04-19T19:06:59.474Z,26.00
2018-04-19T19:09:27.128Z,22.17
2018-04-19T19:11:54.816Z,19.87
2018-04-19T19:14:22.399Z,24.10
2018-04-19T19:16:50.080Z,22.13
2018-04-19T19:19:36.679Z,19.77
2018-04-19T19:22:04.304Z,26.60
2018-04-19T19:24:32.181Z,24.03
2018-04-19T19:26:59.852Z,24.23
2018-04-19T19:29:27.721Z,21.43
2018-04-19T19:31:55.810Z,23.13
2018-04-19T19:34:23.875Z,21.97
2018-04-19T19:36:51.715Z,23.00
2018-04-19T19:39:19.342Z,27.20
2018-04-19T19:41:47.274Z,19.97
2018-04-19T19:44:15.222Z,24.63
2018-04-19T19:46:43.093Z,22.87
2018-04-19T19:49:10.698Z,22.03
2018-04-19T19:51:38.289Z,18.87
2018-04-19T19:54:05.863Z,26.90
2018-04-19T19:56:33.634Z,21.33
2018-04-19T19:59:01.219Z,17.80
2018-04-19T20:01:29.320Z,27.00
2018-04-19T20:03:58.002Z,24.00
2018-04-19T20:06:25.556Z,24.50
2018-04-19T20:08:53.146Z,25.00
2018-04-19T20:11:20.832Z,26.60
2018-04-19T20:19:40.341Z,25.37
2018-04-19T20:22:07.903Z,26.10
2018-04-19T20:24:35.479Z,25.07
2018-04-19T20:27:03.324Z,26.90
2018-04-19T20:29:30.976Z,28.10
2018-04-19T20:31:58.566Z,27.40
2018-04-19T20:34:26.148Z,29.10
2018-04-19T20:36:53.737Z,31.00
2018-04-19T20:39:21.377Z,32.17
2018-04-19T20:41:48.998Z,25.97
2018-04-19T20:44:16.596Z,28.10
2018-04-19T20:46:44.146Z,28.60
2018-04-19T20:49:11.721Z,28.37
2018-04-19T20:51:39.293Z,25.10
2018-04-19T20:54:06.851Z,34.57
2018-04-19T20:56:34.427Z,28.13
2018-04-19T20:59:01.993Z,26.57
2018-04-19T21:01:29.696Z,33.73
2018-04-19T21:03:57.280Z,27.17
2018-04-19T21:06:24.836Z,29.83
2018-04-19T21:08:52.442Z,25.47
2018-04-19T21:11:20.198Z,30.40
2018-04-19T21:13:47.785Z,28.93
2018-04-19T21:16:15.326Z,24.90
2018-04-19T21:18:42.890Z,28.63
2018-04-19T21:21:10.459Z,36.53
2018-04-19T21:23:38.070Z,30.07
2018-04-19T21:26:05.637Z,29.37
2018-04-19T21:28:33.208Z,31.87
2018-04-19T21:31:00.800Z,34.43
2018-04-19T21:33:28.376Z,26.87
2018-04-19T21:35:55.979Z,34.67
2018-04-19T21:38:23.549Z,30.27
2018-04-19T21:40:51.138Z,33.20
2018-04-19T21:43:18.704Z,28.53
2018-04-19T21:45:46.280Z,35.97
2018-04-19T21:48:13.823Z,31.03
2018-04-19T21:50:41.380Z,29.60
2018-04-19T21:53:08.952Z,29.03
2018-04-19T21:55:36.503Z,34.90
2018-04-19T21:58:04.054Z,33.07
2018-04-19T22:00:31.603Z,30.20
2018-04-19T22:02:59.181Z,35.90
2018-04-19T22:05:26.772Z,31.53
2018-04-19T22:07:54.335Z,32.20
2018-04-19T22:10:21.889Z,38.63
2018-04-19T22:12:49.457Z,29.67
2018-04-19T22:15:17.016Z,28.10
2018-04-19T22:17:44.589Z,30.97
2018-04-19T22:20:12.141Z,35.70
2018-04-19T22:22:39.693Z,33.27
2018-04-19T22:25:07.255Z,29.67
2018-04-19T22:27:34.876Z,35.03
2018-04-19T22:30:02.452Z,31.97
2018-04-19T22:32:30.026Z,30.37
2018-04-19T22:34:57.609Z,34.63
2018-04-19T22:37:25.180Z,31.80
2018-04-19T22:39:52.759Z,35.17
2018-04-19T22:42:20.293Z,38.07
2018-04-19T22:44:47.939Z,33.43
2018-04-19T22:47:15.488Z,33.37
2018-04-19T22:49:43.037Z,37.67
2018-04-19T22:52:10.611Z,38.67
2018-04-19T22:54:38.155Z,33.47
2018-04-19T22:57:05.708Z,45.10
2018-04-19T22:59:33.304Z,36.80
2018-04-19T23:02:00.838Z,36.03
2018-04-19T23:04:28.498Z,35.23
2018-04-19T23:06:56.080Z,35.47
2018-04-19T23:09:23.623Z,34.40
2018-04-19T23:11:51.195Z,37.53
2018-04-19T23:14:18.737Z,35.53
2018-04-19T23:16:46.293Z,36.17
2018-04-19T23:19:13.839Z,38.33
2018-04-19T23:21:41.412Z,38.53
2018-04-19T23:24:08.979Z,38.53
2018-04-19T23:26:36.532Z,35.00
2018-04-19T23:29:04.135Z,35.30
2018-04-19T23:31:31.706Z,33.80
2018-04-19T23:33:59.251Z,35.90
2018-04-19T23:36:26.836Z,40.57
2018-04-19T23:38:54.391Z,41.10
2018-04-19T23:41:21.971Z,36.10
2018-04-19T23:43:49.552Z,33.50
2018-04-19T23:46:17.120Z,33.70
2018-04-19T23:48:44.663Z,36.03
2018-04-19T23:51:12.221Z,34.67
2018-04-19T23:53:39.786Z,38.63
2018-04-19T23:56:07.342Z,33.47
2018-04-19T23:58:34.911Z,38.20
